createdAt,value
2019-04-25T00:00:03.242Z,14.7040
2019-04-25T00:00:13.256Z,17.1326
2019-04-25T00:00:28.206Z,16.8869
2019-04-25T00:00:32.247Z,16.1207
2019-04-25T00:00:43.124Z,14.6903
2019-04-25T00:00:53.262Z,13.7427
2019-04-25T00:01:03.429Z,14.1372
2019-04-25T00:01:13.246Z,14.6344
2019-04-25T00:01:23.236Z,14.0234
2019-04-25T00:01:33.234Z,12.9219
2019-04-25T00:01:43.975Z,13.2236
2019-04-25T00:01:52.359Z,12.7504
2019-04-25T00:02:02.226Z,12.5015
2019-04-25T00:02:12.247Z,13.7598
2019-04-25T00:02:22.207Z,14.7803
2019-04-25T00:02:32.539Z,17.2633
2019-04-25T00:02:42.708Z,16.0778
2019-04-25T00:02:53.289Z,14.1979
2019-04-25T00:03:03.264Z,14.9463
2019-04-25T00:03:13.234Z,14.2234
2019-04-25T00:03:23.241Z,14.9778
2019-04-25T00:03:33.234Z,13.6646
2019-04-25T00:03:43.665Z,14.2882
2019-04-25T00:03:54.246Z,14.4252
2019-04-25T00:04:02.024Z,13.3273
2019-04-25T00:04:12.271Z,12.0731
2019-04-25T00:04:22.266Z,15.3633
2019-04-25T00:04:32.257Z,15.9969
2019-04-25T00:04:42.643Z,17.3094
2019-04-25T00:04:53.261Z,16.7895
2019-04-25T00:05:03.396Z,14.9367
2019-04-25T00:05:13.252Z,14.4883
2019-04-25T00:05:22.245Z,12.8286
2019-04-25T00:05:32.232Z,11.9951
2019-04-25T00:05:42.778Z,12.3184
2019-04-25T00:05:53.253Z,11.6807
2019-04-25T00:06:03.248Z,11.8461
2019-04-25T00:06:12.260Z,12.8703
2019-04-25T00:06:23.066Z,14.9136
2019-04-25T00:06:33.266Z,16.3653
2019-04-25T00:06:43.992Z,15.0388
2019-04-25T00:06:52.278Z,14.1841
2019-04-25T00:07:02.334Z,13.2820
2019-04-25T00:07:12.268Z,13.1998
2019-04-25T00:07:22.252Z,14.9610
2019-04-25T00:07:32.849Z,14.6688
2019-04-25T00:07:43.884Z,15.1337
2019-04-25T00:07:54.247Z,14.8403
2019-04-25T00:08:04.272Z,13.5085
2019-04-25T00:08:11.584Z,13.5249
2019-04-25T00:08:24.251Z,11.9043
2019-04-25T00:08:34.263Z,10.8773
2019-04-25T00:08:42.719Z,9.9924
2019-04-25T00:08:53.456Z,11.1678
2019-04-25T00:09:03.221Z,13.8102
2019-04-25T00:09:13.259Z,14.1132
2019-04-25T00:09:23.248Z,13.3225
2019-04-25T00:09:33.237Z,12.3399
2019-04-25T00:09:44.056Z,12.1870
2019-04-25T00:09:51.705Z,12.4353
2019-04-25T00:10:01.631Z,13.0642
2019-04-25T00:10:11.738Z,14.6910
2019-04-25T00:10:23.257Z,14.6656
2019-04-25T00:10:33.248Z,13.0169
2019-04-25T00:10:43.860Z,12.5808
2019-04-25T00:10:54.247Z,12.2554
2019-04-25T00:11:01.699Z,11.9775
2019-04-25T00:11:12.240Z,11.4749
2019-04-25T00:11:21.560Z,12.2418
2019-04-25T00:11:33.267Z,11.4679
2019-04-25T00:11:46.627Z,10.3674
2019-04-25T00:11:52.302Z,11.0442
2019-04-25T00:12:02.342Z,12.3224
2019-04-25T00:12:12.227Z,12.6455
2019-04-25T00:12:22.391Z,13.1678
2019-04-25T00:12:32.243Z,12.7951
2019-04-25T00:12:43.218Z,13.2528
2019-04-25T00:12:53.239Z,13.1034
2019-04-25T00:13:03.601Z,12.3688
2019-04-25T00:13:14.239Z,11.6767
2019-04-25T00:13:21.807Z,11.4914
2019-04-25T00:13:32.202Z,10.1950
2019-04-25T00:13:43.244Z,10.9990
2019-04-25T00:13:51.614Z,11.7020
2019-04-25T00:14:01.613Z,12.0622
2019-04-25T00:14:14.200Z,12.0934
2019-04-25T00:14:22.573Z,12.5400
2019-04-25T00:14:32.213Z,13.4750
2019-04-25T00:14:42.498Z,14.0246
2019-04-25T00:14:52.201Z,11.8477
2019-04-25T00:15:02.236Z,9.4217
2019-04-25T00:15:12.251Z,9.7529
2019-04-25T00:15:22.421Z,10.7770
2019-04-25T00:15:32.243Z,11.0513
2019-04-25T00:15:44.610Z,10.7088
2019-04-25T00:15:52.235Z,10.7052
2019-04-25T00:16:02.209Z,11.6669
2019-04-25T00:16:12.203Z,10.9002
2019-04-25T00:16:22.237Z,12.1010
2019-04-25T00:16:32.259Z,11.5343
2019-04-25T00:16:43.086Z,10.3562
2019-04-25T00:16:51.839Z,10.8444
2019-04-25T00:17:02.233Z,13.0480
2019-04-25T00:17:12.227Z,14.2772
2019-04-25T00:17:22.245Z,12.6441
2019-04-25T00:17:32.248Z,12.2868
2019-04-25T00:17:43.263Z,11.6536
2019-04-25T00:17:53.239Z,11.0056
2019-04-25T00:18:03.240Z,11.3497
2019-04-25T00:18:13.245Z,13.0075
2019-04-25T00:18:23.403Z,13.1505
2019-04-25T00:18:33.225Z,12.6797
2019-04-25T00:18:43.235Z,12.1044
2019-04-25T00:18:53.246Z,10.8021
2019-04-25T00:19:03.245Z,11.5631
2019-04-25T00:19:13.244Z,10.5972
2019-04-25T00:19:23.221Z,9.0839
2019-04-25T00:19:33.337Z,8.6671
2019-04-25T00:19:43.355Z,9.6382
2019-04-25T00:19:53.256Z,10.2861
2019-04-25T00:20:03.245Z,10.3219
2019-04-25T00:20:12.211Z,10.3091
2019-04-25T00:20:22.232Z,10.6790
2019-04-25T00:20:32.246Z,10.8110
2019-04-25T00:20:43.526Z,11.8229
2019-04-25T00:20:53.226Z,12.3312
2019-04-25T00:21:03.232Z,12.4768
2019-04-25T00:21:13.247Z,11.8330
2019-04-25T00:21:23.246Z,10.2600
2019-04-25T00:21:33.884Z,9.0552
2019-04-25T00:21:44.578Z,10.1208
2019-04-25T00:21:51.667Z,10.2145
2019-04-25T00:22:02.328Z,11.1422
2019-04-25T00:22:12.212Z,12.2913
2019-04-25T00:22:22.250Z,13.1180
2019-04-25T00:22:32.242Z,10.7219
2019-04-25T00:22:42.832Z,9.4194
2019-04-25T00:22:53.428Z,9.9254
2019-04-25T00:23:03.253Z,10.7461
2019-04-25T00:23:13.247Z,11.1801
2019-04-25T00:23:23.239Z,10.7529
2019-04-25T00:23:39.376Z,9.1865
2019-04-25T00:23:43.774Z,10.0434
2019-04-25T00:23:54.244Z,11.7361
2019-04-25T00:24:04.254Z,12.2559
2019-04-25T00:24:12.200Z,12.7791
2019-04-25T00:24:24.236Z,12.7203
2019-04-25T00:24:32.073Z,13.5891
2019-04-25T00:24:43.283Z,13.0165
2019-04-25T00:24:54.202Z,12.7594
2019-04-25T00:25:14.371Z,11.6999
2019-04-25T00:25:17.564Z,10.8018
2019-04-25T00:25:22.239Z,11.1751
2019-04-25T00:25:32.257Z,11.8450
2019-04-25T00:25:45.409Z,12.5705
2019-04-25T00:25:53.238Z,14.1937
2019-04-25T00:26:03.241Z,14.2056
2019-04-25T00:26:13.237Z,13.5906
2019-04-25T00:26:23.217Z,12.2241
2019-04-25T00:26:33.254Z,12.8390
2019-04-25T00:26:44.413Z,14.7949
2019-04-25T00:26:53.461Z,13.7400
2019-04-25T00:27:02.301Z,12.5578
2019-04-25T00:27:12.247Z,11.0463
2019-04-25T00:27:23.717Z,10.2633
2019-04-25T00:27:32.015Z,12.3018
2019-04-25T00:27:43.586Z,13.2629
2019-04-25T00:27:51.655Z,12.1026
2019-04-25T00:28:02.226Z,11.1235
2019-04-25T00:28:12.246Z,11.3186
2019-04-25T00:28:22.250Z,10.8529
2019-04-25T00:28:32.237Z,9.7279
2019-04-25T00:28:43.580Z,10.5715
2019-04-25T00:28:52.402Z,13.0564
2019-04-25T00:29:03.999Z,13.2653
2019-04-25T00:29:12.918Z,14.6394
2019-04-25T00:29:23.272Z,13.7917
2019-04-25T00:29:33.246Z,14.1554
2019-04-25T00:29:44.521Z,12.7120
2019-04-25T00:29:52.936Z,11.4408
2019-04-25T00:30:03.232Z,11.3436
2019-04-25T00:30:13.240Z,12.7236
2019-04-25T00:30:23.223Z,13.0808
2019-04-25T00:30:33.265Z,11.7438
2019-04-25T00:30:44.419Z,13.7542
2019-04-25T00:30:52.253Z,13.7365
2019-04-25T00:31:03.239Z,13.3661
2019-04-25T00:31:13.241Z,12.5966
2019-04-25T00:31:24.771Z,13.4411
2019-04-25T00:31:33.232Z,14.0325
2019-04-25T00:31:43.779Z,14.9266
2019-04-25T00:31:54.241Z,14.5853
2019-04-25T00:32:01.696Z,14.1068
2019-04-25T00:32:13.263Z,12.3688
2019-04-25T00:32:23.246Z,11.1814
2019-04-25T00:32:33.272Z,10.7844
2019-04-25T00:32:44.167Z,10.5841
2019-04-25T00:32:51.241Z,11.6552
2019-04-25T00:33:02.050Z,12.2805
2019-04-25T00:33:12.238Z,12.8520
2019-04-25T00:33:22.284Z,11.5697
2019-04-25T00:33:32.253Z,11.9362
2019-04-25T00:33:44.178Z,14.1199
2019-04-25T00:33:53.294Z,14.7968
2019-04-25T00:34:03.248Z,13.6653
2019-04-25T00:34:13.246Z,12.2072
2019-04-25T00:34:23.250Z,12.0742
2019-04-25T00:34:33.708Z,12.5519
2019-04-25T00:34:44.491Z,12.6532
2019-04-25T00:34:52.847Z,12.6550
2019-04-25T00:35:02.221Z,12.5945
2019-04-25T00:35:12.236Z,12.2566
2019-04-25T00:35:22.239Z,10.7645
2019-04-25T00:35:32.239Z,12.5841
2019-04-25T00:35:43.487Z,14.0086
2019-04-25T00:35:51.739Z,13.9897
2019-04-25T00:36:03.864Z,13.1355
2019-04-25T00:36:14.228Z,11.1352
2019-04-25T00:36:21.841Z,10.9963
2019-04-25T00:36:32.236Z,10.7846
2019-04-25T00:36:43.480Z,11.1786
2019-04-25T00:36:51.564Z,13.5310
2019-04-25T00:37:04.272Z,14.2760
2019-04-25T00:37:13.739Z,13.9229
2019-04-25T00:37:22.561Z,14.0204
2019-04-25T00:37:32.388Z,11.1742
2019-04-25T00:37:44.278Z,11.5702
2019-04-25T00:37:52.554Z,12.4300
2019-04-25T00:38:02.464Z,14.0983
2019-04-25T00:38:12.195Z,14.0227
2019-04-25T00:38:22.317Z,14.6856
2019-04-25T00:38:32.246Z,15.4043
2019-04-25T00:38:46.222Z,15.0843
2019-04-25T00:38:52.282Z,15.8129
2019-04-25T00:39:03.237Z,15.9913
2019-04-25T00:39:13.215Z,14.2419
2019-04-25T00:39:23.235Z,13.1421
2019-04-25T00:39:33.201Z,12.2447
2019-04-25T00:39:44.740Z,11.7485
2019-04-25T00:39:52.242Z,12.1679
2019-04-25T00:40:02.281Z,14.5756
2019-04-25T00:40:13.477Z,13.4307
2019-04-25T00:40:23.257Z,12.2955
2019-04-25T00:40:33.247Z,10.9401
2019-04-25T00:40:43.944Z,11.2335
2019-04-25T00:40:52.436Z,11.5669
2019-04-25T00:41:03.225Z,10.7382
2019-04-25T00:41:13.239Z,10.8029
2019-04-25T00:41:23.252Z,12.2058
2019-04-25T00:41:34.193Z,13.5331
2019-04-25T00:41:44.059Z,13.2558
2019-04-25T00:41:52.227Z,13.1539
2019-04-25T00:42:02.505Z,12.7497
2019-04-25T00:42:12.319Z,13.3190
2019-04-25T00:42:23.225Z,14.4672
2019-04-25T00:42:33.244Z,15.8686
2019-04-25T00:42:44.682Z,15.2478
2019-04-25T00:42:53.699Z,15.2597
2019-04-25T00:43:04.232Z,14.8106
2019-04-25T00:43:11.478Z,14.4396
2019-04-25T00:43:21.527Z,11.9792
2019-04-25T00:43:33.220Z,11.0184
2019-04-25T00:43:44.044Z,11.2833
2019-04-25T00:43:52.523Z,11.0436
2019-04-25T00:44:02.450Z,12.4678
2019-04-25T00:44:12.130Z,13.4535
2019-04-25T00:44:22.248Z,13.2368
2019-04-25T00:44:32.247Z,12.3470
2019-04-25T00:44:44.553Z,11.0310
2019-04-25T00:44:52.514Z,12.2265
2019-04-25T00:45:02.443Z,13.6456
2019-04-25T00:45:13.986Z,14.4523
2019-04-25T00:45:22.329Z,12.7335
2019-04-25T00:45:32.228Z,12.3903
2019-04-25T00:45:43.587Z,11.7934
2019-04-25T00:45:54.221Z,12.4759
2019-04-25T00:46:01.593Z,13.0255
2019-04-25T00:46:12.248Z,14.8182
2019-04-25T00:46:22.615Z,15.1423
2019-04-25T00:46:32.318Z,13.5981
2019-04-25T00:46:46.373Z,14.2114
2019-04-25T00:46:54.309Z,14.1725
2019-04-25T00:47:03.235Z,13.0118
2019-04-25T00:47:12.247Z,12.8371
2019-04-25T00:47:22.261Z,13.9401
2019-04-25T00:47:32.248Z,13.3897
2019-04-25T00:47:43.506Z,12.7126
2019-04-25T00:47:54.246Z,12.8658
2019-04-25T00:48:04.402Z,14.6810
2019-04-25T00:48:14.236Z,13.9516
2019-04-25T00:48:22.314Z,13.7359
2019-04-25T00:48:32.236Z,13.1448
2019-04-25T00:48:43.154Z,13.4992
2019-04-25T00:48:53.257Z,13.5676
2019-04-25T00:49:03.233Z,14.2769
2019-04-25T00:49:13.247Z,13.3487
2019-04-25T00:49:23.695Z,11.2868
2019-04-25T00:49:33.232Z,11.2746
2019-04-25T00:49:44.859Z,13.2006
2019-04-25T00:49:53.186Z,13.1711
2019-04-25T00:50:03.232Z,12.5689
2019-04-25T00:50:13.242Z,13.1284
2019-04-25T00:50:23.247Z,12.0182
2019-04-25T00:50:33.224Z,12.1440
2019-04-25T00:50:44.363Z,13.0168
2019-04-25T00:50:54.644Z,13.3862
2019-04-25T00:51:04.251Z,13.6574
2019-04-25T00:51:13.251Z,12.8454
2019-04-25T00:51:23.254Z,12.8386
2019-04-25T00:51:33.274Z,12.9676
2019-04-25T00:51:43.764Z,12.6778
2019-04-25T00:51:52.356Z,13.2852
2019-04-25T00:52:03.273Z,12.9951
2019-04-25T00:52:13.234Z,14.1973
2019-04-25T00:52:23.247Z,13.4423
2019-04-25T00:52:33.232Z,12.0255
2019-04-25T00:52:43.896Z,12.5929
2019-04-25T00:52:53.602Z,13.3783
2019-04-25T00:53:03.244Z,13.6630
2019-04-25T00:53:13.212Z,14.4429
2019-04-25T00:53:23.224Z,13.3557
2019-04-25T00:53:33.265Z,11.7644
2019-04-25T00:53:43.719Z,11.6801
2019-04-25T00:53:53.695Z,13.4462
2019-04-25T00:54:02.429Z,12.9309
2019-04-25T00:54:12.253Z,12.2461
2019-04-25T00:54:22.705Z,11.9512
2019-04-25T00:54:33.223Z,11.9510
2019-04-25T00:54:44.179Z,12.7415
2019-04-25T00:54:52.630Z,11.9675
2019-04-25T00:55:03.236Z,13.5150
2019-04-25T00:55:25.931Z,15.1694
2019-04-25T00:55:28.601Z,15.3573
2019-04-25T00:55:31.499Z,15.0112
2019-04-25T00:55:44.371Z,13.4241
2019-04-25T00:55:54.247Z,12.7094
2019-04-25T00:56:01.544Z,12.1815
2019-04-25T00:56:14.236Z,12.6808
2019-04-25T00:56:22.368Z,11.9037
2019-04-25T00:56:34.247Z,12.1829
2019-04-25T00:56:43.225Z,13.6864
2019-04-25T00:56:52.817Z,13.4349
2019-04-25T00:57:02.169Z,12.0098
2019-04-25T00:57:12.259Z,12.2565
2019-04-25T00:57:22.248Z,13.1914
2019-04-25T00:57:32.230Z,11.5674
2019-04-25T00:57:43.525Z,10.1330
2019-04-25T00:57:52.562Z,11.5470
2019-04-25T00:58:03.367Z,13.5244
2019-04-25T00:58:13.229Z,12.9718
2019-04-25T00:58:23.223Z,13.2585
2019-04-25T00:58:33.256Z,13.8220
2019-04-25T00:58:44.063Z,16.6210
2019-04-25T00:58:53.146Z,15.8919
2019-04-25T00:59:01.945Z,15.2655
2019-04-25T00:59:13.986Z,15.6475
2019-04-25T00:59:22.162Z,13.3628
2019-04-25T00:59:32.214Z,13.4750
2019-04-25T00:59:42.974Z,12.7151
2019-04-25T00:59:52.835Z,12.3789
2019-04-25T01:00:03.234Z,13.4691
2019-04-25T01:00:12.239Z,14.9156
2019-04-25T01:00:22.267Z,15.6457
2019-04-25T01:00:32.688Z,14.6076
2019-04-25T01:00:43.291Z,13.7687
2019-04-25T01:00:54.224Z,11.5914
2019-04-25T01:01:01.997Z,11.0472
2019-04-25T01:01:12.252Z,12.5985
2019-04-25T01:01:22.206Z,12.2823
2019-04-25T01:01:32.189Z,11.7294
2019-04-25T01:01:44.239Z,12.0939
2019-04-25T01:01:53.266Z,11.0380
2019-04-25T01:02:04.224Z,11.3177
2019-04-25T01:02:11.514Z,11.2010
2019-04-25T01:02:21.531Z,12.6179
2019-04-25T01:02:34.237Z,14.1966
2019-04-25T01:02:45.252Z,16.0477
2019-04-25T01:02:53.427Z,15.7140
2019-04-25T01:03:01.600Z,14.3639
2019-04-25T01:03:13.277Z,12.9783
2019-04-25T01:03:23.246Z,12.2569
2019-04-25T01:03:33.245Z,13.8887
2019-04-25T01:03:44.124Z,15.3617
2019-04-25T01:03:53.319Z,16.0745
2019-04-25T01:04:03.247Z,13.5929
2019-04-25T01:04:13.243Z,13.6796
2019-04-25T01:04:22.251Z,12.6901
2019-04-25T01:04:33.585Z,14.0334
2019-04-25T01:04:43.879Z,14.4544
2019-04-25T01:04:52.057Z,13.2382
2019-04-25T01:05:03.245Z,13.4769
2019-04-25T01:05:13.249Z,13.4732
2019-04-25T01:05:23.242Z,12.7705
2019-04-25T01:05:33.245Z,11.2513
2019-04-25T01:05:44.319Z,11.2614
2019-04-25T01:05:53.110Z,12.6111
2019-04-25T01:06:03.829Z,14.7245
2019-04-25T01:06:12.042Z,15.3107
2019-04-25T01:06:22.239Z,14.0608
2019-04-25T01:06:32.247Z,14.5855
2019-04-25T01:06:42.207Z,13.9498
2019-04-25T01:06:52.026Z,14.1300
2019-04-25T01:07:03.256Z,12.5998
2019-04-25T01:07:13.235Z,12.0970
2019-04-25T01:07:22.474Z,13.5961
2019-04-25T01:07:34.373Z,13.4441
2019-04-25T01:07:44.384Z,12.5596
2019-04-25T01:07:54.404Z,12.6753
2019-04-25T01:08:02.128Z,10.9733
2019-04-25T01:08:12.047Z,11.8164
2019-04-25T01:08:24.256Z,11.8615
2019-04-25T01:08:31.982Z,11.6294
2019-04-25T01:08:44.295Z,11.8614
2019-04-25T01:08:55.832Z,12.1988
2019-04-25T01:09:03.258Z,12.4688
2019-04-25T01:09:13.247Z,13.5917
2019-04-25T01:09:23.251Z,13.6932
2019-04-25T01:09:33.257Z,13.7597
2019-04-25T01:09:43.487Z,12.8219
2019-04-25T01:09:54.572Z,11.7954
2019-04-25T01:10:02.471Z,11.7532
2019-04-25T01:10:12.245Z,11.8520
2019-04-25T01:10:23.114Z,13.3002
2019-04-25T01:10:33.233Z,14.3894
2019-04-25T01:10:44.298Z,13.3387
2019-04-25T01:10:54.271Z,12.3699
2019-04-25T01:11:01.780Z,12.1098
2019-04-25T01:11:12.238Z,14.0615
2019-04-25T01:11:22.256Z,12.8871
2019-04-25T01:11:32.216Z,11.9578
2019-04-25T01:11:42.475Z,13.2751
2019-04-25T01:11:53.128Z,13.0214
2019-04-25T01:12:04.099Z,13.5614
2019-04-25T01:12:14.247Z,12.5457
2019-04-25T01:12:21.642Z,12.6936
2019-04-25T01:12:32.235Z,12.6033
2019-04-25T01:12:42.278Z,12.3412
2019-04-25T01:12:53.142Z,11.8816
2019-04-25T01:13:03.236Z,10.9959
2019-04-25T01:13:13.223Z,11.7278
2019-04-25T01:13:23.240Z,11.2962
2019-04-25T01:13:33.267Z,14.9650
2019-04-25T01:13:44.561Z,14.5595
2019-04-25T01:13:54.436Z,12.6004
2019-04-25T01:14:02.153Z,13.4043
2019-04-25T01:14:11.929Z,12.3726
2019-04-25T01:14:22.257Z,11.6163
2019-04-25T01:14:33.746Z,12.1992
2019-04-25T01:14:44.201Z,12.5824
2019-04-25T01:14:52.879Z,11.7023
2019-04-25T01:15:03.248Z,12.0294
2019-04-25T01:15:13.257Z,12.6550
2019-04-25T01:15:23.252Z,12.1583
2019-04-25T01:15:33.236Z,10.6484
2019-04-25T01:15:43.219Z,10.1361
2019-04-25T01:15:53.724Z,10.2342
2019-04-25T01:16:04.139Z,9.4274
2019-04-25T01:16:12.010Z,9.8434
2019-04-25T01:16:22.243Z,12.9642
2019-04-25T01:16:32.271Z,12.8272
2019-04-25T01:16:42.236Z,12.5779
2019-04-25T01:16:53.006Z,11.6110
2019-04-25T01:17:01.737Z,11.8154
2019-04-25T01:17:12.258Z,13.1100
2019-04-25T01:17:22.963Z,12.8636
2019-04-25T01:17:33.248Z,11.5788
2019-04-25T01:17:43.247Z,12.2718
2019-04-25T01:17:53.453Z,12.0508
2019-04-25T01:18:03.278Z,13.0844
2019-04-25T01:18:13.253Z,11.6678
2019-04-25T01:18:23.289Z,11.1995
2019-04-25T01:18:33.707Z,11.2366
2019-04-25T01:18:43.672Z,12.3425
2019-04-25T01:18:54.565Z,13.2019
2019-04-25T01:19:03.539Z,12.5557
2019-04-25T01:19:13.512Z,13.7248
2019-04-25T01:19:23.521Z,13.9287
2019-04-25T01:19:34.450Z,14.6123
2019-04-25T01:19:41.248Z,15.0070
2019-04-25T01:19:51.246Z,15.3735
2019-04-25T01:20:01.258Z,13.9805
2019-04-25T01:20:11.243Z,14.1752
2019-04-25T01:20:24.238Z,14.2153
2019-04-25T01:20:34.510Z,13.9037
2019-04-25T01:20:45.433Z,12.2974
2019-04-25T01:20:53.626Z,11.5083
2019-04-25T01:21:04.510Z,13.2378
2019-04-25T01:21:14.246Z,13.7047
2019-04-25T01:21:25.300Z,14.4620
2019-04-25T01:21:33.930Z,14.5364
2019-04-25T01:21:45.512Z,13.9250
2019-04-25T01:21:54.152Z,14.6608
2019-04-25T01:22:03.764Z,15.6619
2019-04-25T01:22:11.256Z,14.3943
2019-04-25T01:22:21.255Z,13.9231
2019-04-25T01:22:31.258Z,13.2431
2019-04-25T01:22:41.283Z,13.5890
2019-04-25T01:22:56.952Z,14.3175
2019-04-25T01:23:01.243Z,13.4851
2019-04-25T01:23:14.244Z,11.9506
2019-04-25T01:23:24.252Z,12.5351
2019-04-25T01:23:31.240Z,12.5639
2019-04-25T01:23:43.544Z,11.7262
2019-04-25T01:23:54.420Z,11.6251
2019-04-25T01:24:04.381Z,10.8693
2019-04-25T01:24:11.259Z,11.8235
2019-04-25T01:24:24.207Z,12.3950
2019-04-25T01:24:31.259Z,12.0707
2019-04-25T01:24:43.963Z,12.7718
2019-04-25T01:24:55.165Z,12.7870
2019-04-25T01:25:03.843Z,12.3699
2019-04-25T01:25:14.261Z,12.8949
2019-04-25T01:25:21.259Z,12.3381
2019-04-25T01:25:40.971Z,10.4987
2019-04-25T01:25:44.709Z,8.7044
2019-04-25T01:25:53.825Z,8.5611
2019-04-25T01:26:04.238Z,10.8453
2019-04-25T01:26:11.244Z,11.9050
2019-04-25T01:26:24.282Z,12.2015
2019-04-25T01:26:34.252Z,15.0062
2019-04-25T01:26:44.236Z,15.6689
2019-04-25T01:26:51.686Z,16.8059
2019-04-25T01:27:01.257Z,15.5164
2019-04-25T01:27:14.243Z,13.4944
2019-04-25T01:27:21.343Z,12.9053
2019-04-25T01:27:31.250Z,13.4537
2019-04-25T01:27:41.256Z,13.2217
2019-04-25T01:27:53.669Z,10.9664
2019-04-25T01:28:01.256Z,9.6003
2019-04-25T01:28:11.248Z,10.6414
2019-04-25T01:28:21.248Z,11.6281
2019-04-25T01:28:31.241Z,11.9299
2019-04-25T01:28:41.251Z,12.3584
2019-04-25T01:28:51.876Z,11.8631
2019-04-25T01:29:03.633Z,11.8711
2019-04-25T01:29:14.249Z,12.2122
2019-04-25T01:29:24.254Z,11.6483
2019-04-25T01:29:31.238Z,11.2701
2019-04-25T01:29:41.247Z,12.1736
2019-04-25T01:29:51.939Z,11.6345
2019-04-25T01:30:02.257Z,11.0801
2019-04-25T01:30:12.216Z,10.5501
2019-04-25T01:30:23.925Z,10.6376
2019-04-25T01:30:34.240Z,9.9083
2019-04-25T01:30:44.212Z,13.2666
2019-04-25T01:30:51.926Z,13.2145
2019-04-25T01:31:03.774Z,13.2527
2019-04-25T01:31:11.270Z,12.5022
2019-04-25T01:31:24.910Z,10.8174
2019-04-25T01:31:33.575Z,11.3672
2019-04-25T01:31:43.497Z,11.3428
2019-04-25T01:31:54.398Z,10.5499
2019-04-25T01:32:03.248Z,10.2959
2019-04-25T01:32:13.966Z,9.8660
2019-04-25T01:32:24.256Z,12.2738
2019-04-25T01:32:31.246Z,13.6255
2019-04-25T01:32:41.243Z,13.7420
2019-04-25T01:32:51.272Z,12.7138
2019-04-25T01:33:04.300Z,12.3725
2019-04-25T01:33:11.277Z,12.6126
2019-04-25T01:33:24.253Z,12.9525
2019-04-25T01:33:33.413Z,11.0830
2019-04-25T01:33:43.362Z,10.6239
2019-04-25T01:33:54.622Z,10.4107
2019-04-25T01:34:02.240Z,10.6102
2019-04-25T01:34:12.247Z,11.9613
2019-04-25T01:34:22.212Z,13.2985
2019-04-25T01:34:34.167Z,13.1280
2019-04-25T01:34:41.256Z,11.3003
2019-04-25T01:34:53.865Z,9.9744
2019-04-25T01:35:04.011Z,10.0327
2019-04-25T01:35:14.250Z,10.1153
2019-04-25T01:35:24.281Z,10.8806
2019-04-25T01:35:31.249Z,11.9060
2019-04-25T01:35:44.923Z,12.4201
2019-04-25T01:35:54.455Z,15.6724
2019-04-25T01:36:04.252Z,15.8974
2019-04-25T01:36:11.248Z,14.8021
2019-04-25T01:36:21.249Z,12.7083
2019-04-25T01:36:31.243Z,13.0296
2019-04-25T01:36:41.327Z,15.1140
2019-04-25T01:36:51.246Z,15.6194
2019-04-25T01:37:01.264Z,14.8121
2019-04-25T01:37:11.247Z,12.6741
2019-04-25T01:37:21.247Z,11.9914
2019-04-25T01:37:31.266Z,11.8639
2019-04-25T01:37:43.834Z,11.6257
2019-04-25T01:37:55.177Z,11.7659
2019-04-25T01:38:03.643Z,13.1010
2019-04-25T01:38:13.903Z,13.4972
2019-04-25T01:38:24.258Z,12.4183
2019-04-25T01:38:34.245Z,12.6770
2019-04-25T01:38:41.246Z,12.7290
2019-04-25T01:38:51.247Z,13.9061
2019-04-25T01:39:01.257Z,13.0625
2019-04-25T01:39:14.390Z,12.8506
2019-04-25T01:39:21.249Z,13.1798
2019-04-25T01:39:34.269Z,12.0758
2019-04-25T01:39:41.247Z,12.2719
2019-04-25T01:39:55.318Z,12.0534
2019-04-25T01:40:04.146Z,11.6430
2019-04-25T01:40:11.244Z,10.3997
2019-04-25T01:40:21.242Z,9.3159
2019-04-25T01:40:31.240Z,9.0996
2019-04-25T01:40:41.254Z,10.4170
2019-04-25T01:40:51.265Z,11.4174
2019-04-25T01:41:01.257Z,11.6096
2019-04-25T01:41:14.637Z,13.6573
2019-04-25T01:41:24.334Z,15.5551
2019-04-25T01:41:31.242Z,15.3111
2019-04-25T01:41:41.254Z,15.9351
2019-04-25T01:41:51.333Z,15.1351
2019-04-25T01:42:05.285Z,13.1634
2019-04-25T01:42:14.257Z,12.8976
2019-04-25T01:42:21.259Z,12.5583
2019-04-25T01:42:31.236Z,11.1332
2019-04-25T01:42:44.247Z,11.8937
2019-04-25T01:42:51.553Z,13.0523
2019-04-25T01:43:04.249Z,12.3059
2019-04-25T01:43:14.249Z,10.4435
2019-04-25T01:43:21.246Z,10.2719
2019-04-25T01:43:31.242Z,11.1725
2019-04-25T01:43:41.257Z,11.1447
2019-04-25T01:43:53.105Z,12.2920
2019-04-25T01:44:04.572Z,12.6066
2019-04-25T01:44:11.249Z,12.2892
2019-04-25T01:44:21.257Z,12.0591
2019-04-25T01:44:31.252Z,12.4765
2019-04-25T01:44:44.246Z,12.0065
2019-04-25T01:44:51.604Z,12.0511
2019-04-25T01:45:01.262Z,11.5522
2019-04-25T01:45:14.258Z,11.2596
2019-04-25T01:45:21.246Z,10.6085
2019-04-25T01:45:31.249Z,12.3011
2019-04-25T01:45:44.254Z,11.0391
2019-04-25T01:45:54.910Z,11.1909
2019-04-25T01:46:03.379Z,12.5065
2019-04-25T01:46:14.762Z,13.2679
2019-04-25T01:46:22.237Z,14.6687
2019-04-25T01:46:32.249Z,14.7103
2019-04-25T01:46:41.246Z,13.0851
2019-04-25T01:46:51.854Z,11.5297
2019-04-25T01:47:04.068Z,11.0223
2019-04-25T01:47:14.245Z,12.0906
2019-04-25T01:47:21.254Z,13.2714
2019-04-25T01:47:39.250Z,11.6140
2019-04-25T01:47:43.442Z,11.4316
2019-04-25T01:47:54.089Z,10.8255
2019-04-25T01:48:01.320Z,10.3322
2019-04-25T01:48:11.240Z,9.6840
2019-04-25T01:48:24.253Z,10.4741
2019-04-25T01:48:34.248Z,11.0419
2019-04-25T01:48:41.248Z,11.7704
2019-04-25T01:48:52.199Z,10.8658
2019-04-25T01:49:04.306Z,11.5097
2019-04-25T01:49:14.223Z,11.9902
2019-04-25T01:49:24.203Z,12.7239
2019-04-25T01:49:31.252Z,13.1341
2019-04-25T01:49:41.256Z,11.9902
2019-04-25T01:49:52.262Z,14.0954
2019-04-25T01:50:03.825Z,14.7429
2019-04-25T01:50:11.241Z,13.8653
2019-04-25T01:50:21.248Z,12.6270
2019-04-25T01:50:35.269Z,11.4420
2019-04-25T01:50:43.776Z,11.8577
2019-04-25T01:50:51.246Z,10.6891
2019-04-25T01:51:01.260Z,10.8425
2019-04-25T01:51:11.246Z,11.3667
2019-04-25T01:51:24.249Z,12.0866
2019-04-25T01:51:31.251Z,11.5179
2019-04-25T01:51:41.259Z,11.5322
2019-04-25T01:51:51.246Z,10.4261
2019-04-25T01:52:01.247Z,11.6001
2019-04-25T01:52:11.260Z,11.8212
2019-04-25T01:52:24.234Z,12.3739
2019-04-25T01:52:34.228Z,13.1336
2019-04-25T01:52:41.258Z,14.9094
2019-04-25T01:52:51.264Z,15.0041
2019-04-25T01:53:04.266Z,14.8061
2019-04-25T01:53:11.246Z,13.3062
2019-04-25T01:53:21.247Z,13.0986
2019-04-25T01:53:35.516Z,12.8324
2019-04-25T01:53:44.266Z,11.9816
2019-04-25T01:53:51.249Z,11.6113
2019-04-25T01:54:04.273Z,11.7220
2019-04-25T01:54:14.252Z,12.9292
2019-04-25T01:54:21.259Z,12.6499
2019-04-25T01:54:34.278Z,12.9481
2019-04-25T01:54:41.244Z,12.5565
2019-04-25T01:54:51.244Z,12.7466
2019-04-25T01:55:05.553Z,12.8243
2019-04-25T01:55:13.751Z,13.3758
2019-04-25T01:55:23.469Z,12.8470
2019-04-25T01:55:33.641Z,12.5187
2019-04-25T01:55:53.616Z,10.8279
2019-04-25T01:56:00.584Z,11.2643
2019-04-25T01:56:05.223Z,12.0185
2019-04-25T01:56:13.593Z,12.8452
2019-04-25T01:56:24.688Z,11.7087
2019-04-25T01:56:33.279Z,13.3838
2019-04-25T01:56:44.290Z,12.5226
2019-04-25T01:56:55.015Z,12.5588
2019-04-25T01:57:04.372Z,11.5503
2019-04-25T01:57:14.383Z,10.6040
2019-04-25T01:57:21.259Z,10.7955
2019-04-25T01:57:34.246Z,10.4925
2019-04-25T01:57:43.827Z,11.1805
2019-04-25T01:57:54.570Z,11.1100
2019-04-25T01:58:03.733Z,11.0941
2019-04-25T01:58:11.246Z,11.5143
2019-04-25T01:58:24.253Z,10.1869
2019-04-25T01:58:34.251Z,11.8734
2019-04-25T01:58:41.265Z,13.7508
2019-04-25T01:58:51.246Z,14.8676
2019-04-25T01:59:03.907Z,13.3596
2019-04-25T01:59:11.242Z,13.2172
2019-04-25T01:59:21.238Z,12.4149
2019-04-25T01:59:31.244Z,11.1143
2019-04-25T01:59:41.247Z,12.6492
2019-04-25T01:59:55.419Z,13.2398
2019-04-25T02:00:03.928Z,13.0517
2019-04-25T02:00:11.241Z,14.2638
2019-04-25T02:00:24.259Z,11.6728
2019-04-25T02:00:31.249Z,12.1210
2019-04-25T02:00:41.256Z,12.9674
2019-04-25T02:00:52.100Z,12.7401
2019-04-25T02:01:01.242Z,11.2144